Time;durP1;ratioP1;P1;durP2;ratioP2;P2;SDS_P1;SDS_P2;PMS_P1;PMS_P2;Temp;Humidity;BMP_temperature;BMP_pressure;BME280_temperature;BME280_humidity;BME280_pressure;Samples;Min_cycle;Max_cycle;Signal;HPM_P1;HPM_P2
2022/03/08 00:02:09;;;;;;;9.33;5.10;;;1.20;99.90;;;;;;5014731;28;20180;-64
2022/03/08 00:04:35;;;;;;;14.00;5.93;;;1.30;99.90;;;;;;5014734;28;20201;-64
2022/03/08 00:07:01;;;;;;;11.27;6.27;;;1.30;99.90;;;;;;5013987;28;20223;-63
2022/03/08 00:09:27;;;;;;;9.00;5.93;;;1.30;99.90;;;;;;5014780;28;20289;-63
2022/03/08 00:11:53;;;;;;;8.37;5.57;;;1.30;99.90;;;;;;5013936;28;20248;-64
2022/03/08 00:14:19;;;;;;;7.13;5.13;;;1.30;99.90;;;;;;5015437;28;20231;-63
2022/03/08 00:16:45;;;;;;;8.07;5.17;;;1.40;99.90;;;;;;5014516;28;20223;-63
2022/03/08 00:19:11;;;;;;;8.33;5.10;;;1.40;99.90;;;;;;4997771;28;20181;-63
2022/03/08 00:21:37;;;;;;;10.00;4.63;;;1.40;99.90;;;;;;5020912;28;20170;-64
2022/03/08 00:24:03;;;;;;;8.40;5.13;;;1.40;99.90;;;;;;5022514;28;20204;-64
2022/03/08 00:26:29;;;;;;;11.63;5.07;;;1.30;99.90;;;;;;5001453;28;20265;-64
2022/03/08 00:28:54;;;;;;;8.40;4.87;;;1.40;99.90;;;;;;5001951;28;20586;-64
2022/03/08 00:31:20;;;;;;;8.97;4.90;;;1.40;99.90;;;;;;4997638;28;20498;-63
2022/03/08 00:33:46;;;;;;;9.83;5.30;;;1.30;99.90;;;;;;4994653;28;20170;-63
2022/03/08 00:36:12;;;;;;;7.43;4.93;;;1.20;99.90;;;;;;4994068;28;20197;-64
2022/03/08 00:38:37;;;;;;;7.90;4.27;;;1.10;99.90;;;;;;4994504;28;20350;-63
2022/03/08 00:41:03;;;;;;;6.67;4.23;;;0.90;99.90;;;;;;4994298;28;20511;-63
2022/03/08 00:43:28;;;;;;;9.60;5.03;;;1.00;99.90;;;;;;4994080;28;20571;-63
2022/03/08 00:45:54;;;;;;;6.60;4.40;;;1.10;99.90;;;;;;4994403;28;20209;-64
2022/03/08 00:48:20;;;;;;;8.00;4.53;;;1.00;99.90;;;;;;4994093;28;20179;-62
2022/03/08 00:50:46;;;;;;;8.13;4.97;;;1.10;99.90;;;;;;4993880;28;20244;-63
2022/03/08 00:53:11;;;;;;;7.53;3.90;;;1.00;99.90;;;;;;4993694;28;20162;-63
2022/03/08 00:55:38;;;;;;;8.73;4.30;;;0.90;99.90;;;;;;4993512;28;20221;-63
2022/03/08 00:58:06;;;;;;;9.17;4.57;;;0.90;99.90;;;;;;4994099;28;20219;-64
2022/03/08 01:00:34;;;;;;;6.57;4.03;;;0.70;99.90;;;;;;4994179;28;20166;-63
2022/03/08 01:03:00;;;;;;;6.57;4.20;;;0.60;99.90;;;;;;4993648;28;20177;-65
2022/03/08 01:05:27;;;;;;;5.83;4.23;;;0.50;99.90;;;;;;4994058;28;20583;-64
2022/03/08 01:07:53;;;;;;;8.03;4.50;;;0.50;99.90;;;;;;4994350;28;20178;-67
2022/03/08 01:10:21;;;;;;;6.43;4.13;;;0.50;99.90;;;;;;4994221;28;20547;-64
2022/03/08 01:12:48;;;;;;;10.33;4.60;;;0.50;99.90;;;;;;4994000;28;20165;-63
2022/03/08 01:15:14;;;;;;;6.60;4.50;;;0.50;99.90;;;;;;4993780;28;20186;-64
2022/03/08 01:17:40;;;;;;;6.10;4.20;;;0.50;99.90;;;;;;4993965;28;20232;-63
2022/03/08 01:20:08;;;;;;;6.43;4.40;;;0.50;99.90;;;;;;4993882;28;20285;-63
2022/03/08 01:22:33;;;;;;;8.23;4.77;;;0.50;99.90;;;;;;4993675;28;20166;-63
2022/03/08 01:24:59;;;;;;;10.33;4.10;;;0.50;99.90;;;;;;4996575;28;20182;-63
2022/03/08 01:27:26;;;;;;;9.37;5.00;;;0.50;99.90;;;;;;5009002;28;20320;-63
2022/03/08 01:29:52;;;;;;;6.93;4.67;;;0.40;99.90;;;;;;5016637;28;20162;-64
2022/03/08 01:32:18;;;;;;;10.97;5.47;;;0.50;99.90;;;;;;5017265;28;20166;-63
2022/03/08 01:34:43;;;;;;;8.40;4.90;;;0.50;99.90;;;;;;5016979;28;20208;-65
2022/03/08 01:37:10;;;;;;;6.50;4.60;;;0.40;99.90;;;;;;5016900;28;20621;-64
2022/03/08 01:39:36;;;;;;;7.57;4.60;;;0.50;99.90;;;;;;5017430;28;20221;-64
2022/03/08 01:42:14;;;;;;;8.00;4.87;;;0.40;99.90;;;;;;5017026;28;20192;-64
2022/03/08 01:44:42;;;;;;;7.97;5.20;;;0.40;99.90;;;;;;4999114;28;20496;-64
2022/03/08 01:47:11;;;;;;;8.97;5.10;;;0.60;99.90;;;;;;5016852;28;20161;-62
2022/03/08 01:49:37;;;;;;;7.87;4.73;;;0.40;99.90;;;;;;5016676;28;20507;-63
2022/03/08 01:52:03;;;;;;;7.73;4.93;;;0.30;99.90;;;;;;5016637;28;20161;-64
2022/03/08 01:54:29;;;;;;;9.90;5.00;;;0.30;99.90;;;;;;5011896;28;20185;-63
2022/03/08 01:56:54;;;;;;;10.67;5.23;;;0.30;99.90;;;;;;5016385;28;20528;-64
2022/03/08 01:59:20;;;;;;;7.27;4.97;;;0.20;99.90;;;;;;5015945;28;20177;-65
2022/03/08 02:01:46;;;;;;;9.23;5.30;;;0.30;99.90;;;;;;5016171;28;20180;-64
2022/03/08 02:04:12;;;;;;;11.03;5.50;;;0.20;99.90;;;;;;5016391;28;20162;-64
2022/03/08 02:06:38;;;;;;;10.47;5.70;;;0.30;99.90;;;;;;5016253;28;20248;-63
2022/03/08 02:09:03;;;;;;;9.67;5.13;;;0.30;99.90;;;;;;5016270;28;20173;-64
2022/03/08 02:11:30;;;;;;;7.83;4.90;;;0.20;99.90;;;;;;5016336;28;20166;-65
2022/03/08 02:13:55;;;;;;;9.17;4.80;;;0.10;99.90;;;;;;5016356;28;20669;-64
2022/03/08 02:16:22;;;;;;;6.23;4.40;;;-0.10;99.90;;;;;;5015530;28;20280;-65
2022/03/08 02:18:47;;;;;;;9.00;4.80;;;-0.10;99.90;;;;;;5015711;28;20174;-65
2022/03/08 02:21:13;;;;;;;8.47;4.93;;;-0.10;99.90;;;;;;5016059;28;20181;-64
2022/03/08 02:23:38;;;;;;;8.70;5.47;;;0.00;99.90;;;;;;5015524;28;20231;-63
2022/03/08 02:26:04;;;;;;;7.23;4.57;;;0.00;99.90;;;;;;5015559;28;20256;-65
2022/03/08 02:28:30;;;;;;;8.27;4.70;;;0.00;99.90;;;;;;5016374;28;20235;-65
2022/03/08 02:30:56;;;;;;;8.83;5.13;;;0.00;99.90;;;;;;5015557;28;20288;-64
2022/03/08 02:33:22;;;;;;;8.70;4.67;;;0.00;99.90;;;;;;5015979;28;20176;-65
2022/03/08 02:35:48;;;;;;;5.63;4.23;;;-0.10;99.90;;;;;;5015165;28;20574;-65
2022/03/08 02:38:13;;;;;;;10.20;5.17;;;0.00;99.90;;;;;;5015608;28;20174;-63
2022/03/08 02:40:43;;;;;;;8.83;4.33;;;0.00;99.90;;;;;;5015636;28;20515;-63
2022/03/08 02:43:10;;;;;;;8.77;4.80;;;-0.10;99.90;;;;;;5015561;28;20158;-63
2022/03/08 02:45:37;;;;;;;8.83;4.97;;;-0.10;99.90;;;;;;5015313;28;20507;-65
2022/03/08 02:48:03;;;;;;;10.23;5.13;;;-0.10;99.90;;;;;;5015806;28;20200;-64
2022/03/08 02:50:29;;;;;;;6.60;4.77;;;-0.20;99.90;;;;;;5016116;28;20169;-64
2022/03/08 02:52:56;;;;;;;7.50;5.00;;;-0.20;99.90;;;;;;5016141;28;20165;-65
2022/03/08 02:55:27;;;;;;;7.27;4.77;;;-0.20;99.90;;;;;;5015812;28;20177;-65
2022/03/08 02:57:54;;;;;;;8.83;4.80;;;-0.20;99.90;;;;;;5016206;28;20216;-65
2022/03/08 03:00:23;;;;;;;8.97;5.30;;;-0.20;99.90;;;;;;5000180;28;20609;-64
2022/03/08 03:02:49;;;;;;;8.00;5.00;;;-0.20;99.90;;;;;;5019981;28;20177;-63
2022/03/08 03:05:15;;;;;;;8.20;4.67;;;-0.20;99.90;;;;;;5019134;28;20165;-64
2022/03/08 03:07:41;;;;;;;9.07;4.93;;;-0.30;99.90;;;;;;5022592;28;20228;-64
2022/03/08 03:10:09;;;;;;;8.83;4.67;;;-0.20;99.90;;;;;;5021531;28;20307;-64
2022/03/08 03:12:35;;;;;;;7.27;4.80;;;-0.20;99.90;;;;;;5019403;28;20200;-65
2022/03/08 03:15:00;;;;;;;8.87;5.07;;;-0.20;99.90;;;;;;5016155;28;20178;-64
2022/03/08 03:17:26;;;;;;;7.30;5.17;;;-0.20;99.90;;;;;;5014101;28;20211;-64
2022/03/08 03:19:52;;;;;;;9.97;5.40;;;-0.10;99.90;;;;;;5014934;28;20214;-65
2022/03/08 03:22:17;;;;;;;7.90;5.17;;;-0.20;99.90;;;;;;5014773;28;20158;-65
2022/03/08 03:24:43;;;;;;;9.93;5.63;;;-0.20;99.90;;;;;;5015379;28;20192;-65
2022/03/08 03:27:09;;;;;;;7.10;4.80;;;-0.30;99.90;;;;;;5014548;28;20699;-63
2022/03/08 03:29:34;;;;;;;12.83;4.77;;;-0.20;99.90;;;;;;5015107;28;20173;-64
2022/03/08 03:32:00;;;;;;;7.53;4.83;;;-0.40;99.90;;;;;;5014740;28;20176;-65
2022/03/08 03:34:25;;;;;;;8.63;5.03;;;-0.30;99.90;;;;;;5014873;28;20174;-64
2022/03/08 03:36:51;;;;;;;8.83;5.33;;;-0.30;99.90;;;;;;5014656;28;20225;-63
2022/03/08 03:39:17;;;;;;;9.23;5.07;;;-0.30;99.90;;;;;;5014406;28;20169;-64
2022/03/08 03:41:42;;;;;;;8.20;5.37;;;-0.50;99.90;;;;;;5014970;28;20620;-65
2022/03/08 03:44:08;;;;;;;9.63;5.33;;;-0.50;99.90;;;;;;5014089;28;20248;-65
2022/03/08 03:46:33;;;;;;;8.43;5.00;;;-0.40;99.90;;;;;;5014234;28;20584;-64
2022/03/08 03:48:59;;;;;;;10.00;5.57;;;-0.50;99.90;;;;;;5014582;28;20192;-64
2022/03/08 03:51:25;;;;;;;7.23;5.10;;;-0.50;99.90;;;;;;5014116;28;20227;-65
2022/03/08 03:53:50;;;;;;;9.17;5.47;;;-0.60;99.90;;;;;;5014216;28;20170;-64
2022/03/08 03:56:16;;;;;;;6.70;4.80;;;-0.60;99.90;;;;;;5014026;28;20544;-65
2022/03/08 03:58:41;;;;;;;8.37;4.60;;;-0.60;99.90;;;;;;5013671;28;20201;-63
2022/03/08 04:01:07;;;;;;;9.63;4.90;;;-0.60;99.90;;;;;;5014041;28;20601;-64
2022/03/08 04:03:33;;;;;;;8.47;5.10;;;-0.60;99.90;;;;;;5013687;28;20170;-64
2022/03/08 04:05:58;;;;;;;7.07;4.50;;;-0.50;99.90;;;;;;5013871;28;20673;-64
2022/03/08 04:08:24;;;;;;;7.47;5.20;;;-0.50;99.90;;;;;;4996397;28;20323;-64
2022/03/08 04:10:50;;;;;;;8.47;5.07;;;-0.60;99.90;;;;;;5013913;28;20175;-64
2022/03/08 04:13:17;;;;;;;8.17;5.30;;;-0.60;99.90;;;;;;5013482;28;20169;-63
2022/03/08 04:15:44;;;;;;;7.13;4.40;;;-0.70;99.90;;;;;;5014165;28;20180;-64
2022/03/08 04:18:10;;;;;;;7.67;5.20;;;-0.60;99.90;;;;;;5013970;28;20613;-65
2022/03/08 04:20:35;;;;;;;8.77;5.20;;;-0.60;99.90;;;;;;5014352;28;20165;-65
2022/03/08 04:23:01;;;;;;;8.10;4.90;;;-0.60;99.90;;;;;;4996740;28;20222;-65
2022/03/08 04:25:27;;;;;;;7.80;5.00;;;-0.60;99.90;;;;;;4996160;28;20181;-64
2022/03/08 04:27:52;;;;;;;8.00;4.90;;;-0.60;99.90;;;;;;5013897;28;20241;-64
2022/03/08 04:30:18;;;;;;;7.17;4.73;;;-0.70;99.90;;;;;;5015007;28;20169;-64
2022/03/08 04:32:44;;;;;;;9.53;5.20;;;-0.70;99.90;;;;;;4997653;28;20185;-64
2022/03/08 04:35:11;;;;;;;6.20;4.73;;;-0.70;99.90;;;;;;5014806;28;20200;-64
2022/03/08 04:37:37;;;;;;;9.30;5.30;;;-0.70;99.90;;;;;;5015344;28;20189;-64
2022/03/08 04:40:04;;;;;;;10.63;4.87;;;-0.60;99.90;;;;;;5016795;28;20648;-65
2022/03/08 04:42:30;;;;;;;6.53;4.93;;;-0.70;99.90;;;;;;5018205;28;20228;-64
2022/03/08 04:44:56;;;;;;;11.43;5.10;;;-0.70;99.90;;;;;;5014149;28;20594;-64
2022/03/08 04:47:21;;;;;;;10.23;5.53;;;-0.70;99.90;;;;;;5013823;28;20547;-64
2022/03/08 04:49:47;;;;;;;7.27;5.03;;;-0.70;99.90;;;;;;5013618;28;20590;-65
2022/03/08 04:52:12;;;;;;;8.23;5.00;;;-0.70;99.90;;;;;;5013358;28;20251;-64
2022/03/08 04:54:38;;;;;;;11.47;5.63;;;-0.70;99.90;;;;;;5014560;28;20275;-64
2022/03/08 04:57:04;;;;;;;7.47;4.87;;;-0.80;99.90;;;;;;5014576;28;20240;-65
2022/03/08 04:59:30;;;;;;;7.17;5.57;;;-0.80;99.90;;;;;;5018413;28;20174;-65
2022/03/08 05:01:55;;;;;;;8.97;5.37;;;-0.80;99.90;;;;;;5017596;28;20177;-64
2022/03/08 05:04:21;;;;;;;16.83;6.50;;;-0.80;99.90;;;;;;5018376;28;20158;-64
2022/03/08 05:06:47;;;;;;;9.57;5.07;;;-0.80;99.90;;;;;;5017849;28;20166;-64
2022/03/08 05:09:13;;;;;;;9.07;5.40;;;-0.90;99.90;;;;;;5017639;28;20252;-63
2022/03/08 05:11:39;;;;;;;8.67;5.20;;;-0.80;99.90;;;;;;5017639;28;20212;-64
2022/03/08 05:14:05;;;;;;;9.17;5.40;;;-0.90;99.90;;;;;;5017302;28;20197;-65
2022/03/08 05:16:30;;;;;;;11.30;6.13;;;-1.00;99.90;;;;;;5017496;28;20586;-64
2022/03/08 05:18:57;;;;;;;9.33;5.83;;;-0.90;99.90;;;;;;4999849;28;20178;-64
2022/03/08 05:21:22;;;;;;;16.33;5.53;;;-0.90;99.90;;;;;;5017168;28;20357;-66
2022/03/08 05:23:48;;;;;;;7.60;5.23;;;-1.00;99.90;;;;;;5017309;28;20265;-64
2022/03/08 05:26:13;;;;;;;11.20;5.63;;;-1.00;99.90;;;;;;5017276;28;20166;-65
2022/03/08 05:28:42;;;;;;;17.70;5.53;;;-1.10;99.90;;;;;;5017586;28;20226;-64
2022/03/08 05:31:08;;;;;;;9.23;5.40;;;-1.10;99.90;;;;;;5017110;28;20482;-64
2022/03/08 05:33:34;;;;;;;9.27;5.53;;;-1.00;99.90;;;;;;5017138;28;20167;-65
2022/03/08 05:36:00;;;;;;;11.47;5.87;;;-1.00;99.90;;;;;;5017229;28;20281;-63
2022/03/08 05:38:25;;;;;;;10.67;5.60;;;-1.10;99.90;;;;;;5016902;28;20201;-64
2022/03/08 05:40:52;;;;;;;10.63;5.73;;;-1.10;99.90;;;;;;5017092;28;20168;-65
2022/03/08 05:43:17;;;;;;;12.30;6.63;;;-1.00;99.90;;;;;;5017548;28;20166;-64
2022/03/08 05:45:43;;;;;;;11.30;6.00;;;-1.00;99.90;;;;;;5017827;28;20236;-64
2022/03/08 05:48:10;;;;;;;12.87;6.20;;;-1.00;99.90;;;;;;5000067;28;20180;-64
2022/03/08 05:50:35;;;;;;;14.57;7.43;;;-1.00;99.90;;;;;;5019585;28;20582;-64
2022/03/08 05:53:01;;;;;;;13.37;7.97;;;-0.90;99.90;;;;;;5021441;28;20171;-65
2022/03/08 05:55:27;;;;;;;15.00;7.07;;;-0.90;99.90;;;;;;5022360;28;20170;-65
2022/03/08 05:57:52;;;;;;;11.57;6.63;;;-0.90;99.90;;;;;;5022713;28;20209;-65
2022/03/08 06:00:18;;;;;;;9.43;5.80;;;-0.90;99.90;;;;;;5022202;28;20176;-65
2022/03/08 06:02:44;;;;;;;17.43;6.90;;;-0.90;99.90;;;;;;5021596;28;20581;-65
2022/03/08 06:05:10;;;;;;;12.03;6.93;;;-0.80;99.90;;;;;;5019601;28;20195;-64
2022/03/08 06:07:36;;;;;;;15.20;7.00;;;-0.80;99.90;;;;;;5016647;28;20170;-65
2022/03/08 06:10:03;;;;;;;12.13;8.20;;;-0.70;99.90;;;;;;5015404;28;20234;-65
2022/03/08 06:12:29;;;;;;;18.10;8.50;;;-0.70;99.90;;;;;;5016339;28;20197;-64
2022/03/08 06:14:55;;;;;;;13.27;7.87;;;-0.70;99.90;;;;;;5016299;28;20204;-63
2022/03/08 06:17:20;;;;;;;17.20;8.97;;;-0.70;99.90;;;;;;5015985;28;20237;-64
2022/03/08 06:19:46;;;;;;;15.07;9.17;;;-0.70;99.90;;;;;;5015730;28;20218;-65
2022/03/08 06:22:12;;;;;;;14.70;8.27;;;-0.80;99.90;;;;;;4998921;28;20185;-65
2022/03/08 06:24:37;;;;;;;25.60;10.53;;;-0.80;99.90;;;;;;5016233;28;20590;-65
2022/03/08 06:27:03;;;;;;;23.90;13.30;;;-0.60;99.90;;;;;;5015829;28;20229;-63
2022/03/08 06:29:29;;;;;;;32.43;18.67;;;-0.60;99.90;;;;;;5016131;28;20173;-65
2022/03/08 06:31:54;;;;;;;38.30;20.77;;;-0.50;99.90;;;;;;5015361;28;20244;-64
2022/03/08 06:34:20;;;;;;;28.77;15.80;;;-0.50;99.90;;;;;;5015658;28;20621;-64
2022/03/08 06:36:46;;;;;;;18.27;12.97;;;-0.40;99.90;;;;;;5015468;28;20195;-64
2022/03/08 06:39:13;;;;;;;20.40;11.37;;;-0.40;99.90;;;;;;5015957;28;20201;-64
2022/03/08 06:41:38;;;;;;;18.93;11.70;;;-0.40;99.90;;;;;;5015826;28;20499;-65
2022/03/08 06:44:04;;;;;;;19.77;10.70;;;-0.40;99.90;;;;;;5015560;28;20661;-65
2022/03/08 06:46:30;;;;;;;15.83;9.30;;;-0.30;99.90;;;;;;4999378;28;20204;-64
2022/03/08 06:48:56;;;;;;;17.93;10.57;;;-0.30;99.90;;;;;;4996563;28;20185;-65
2022/03/08 06:51:21;;;;;;;19.57;10.70;;;-0.20;99.90;;;;;;4995793;28;20212;-64
2022/03/08 06:53:47;;;;;;;21.97;9.03;;;-0.10;99.90;;;;;;4995637;28;20198;-64
2022/03/08 06:56:13;;;;;;;102.70;50.47;;;-0.20;99.90;;;;;;4996691;28;20193;-65
2022/03/08 06:58:39;;;;;;;19.73;10.67;;;-0.10;99.90;;;;;;4998267;28;20493;-64
2022/03/08 07:01:04;;;;;;;17.00;10.07;;;0.00;99.90;;;;;;4998461;28;20174;-63
2022/03/08 07:03:30;;;;;;;21.57;13.27;;;0.10;99.90;;;;;;4996642;28;20163;-64
2022/03/08 07:05:56;;;;;;;17.20;10.03;;;0.10;99.90;;;;;;4995875;28;20515;-64
2022/03/08 07:08:21;;;;;;;18.97;8.70;;;0.30;99.90;;;;;;4995580;28;20507;-65
2022/03/08 07:10:47;;;;;;;12.27;7.27;;;0.40;99.90;;;;;;4995492;28;20201;-63
2022/03/08 07:13:13;;;;;;;19.73;7.23;;;0.40;99.90;;;;;;4993890;28;20196;-64
2022/03/08 07:15:39;;;;;;;11.43;7.10;;;0.60;99.90;;;;;;4977900;28;20179;-65
2022/03/08 07:18:05;;;;;;;11.07;6.60;;;0.80;99.90;;;;;;4995752;28;20171;-63
2022/03/08 07:20:30;;;;;;;16.07;7.50;;;0.80;99.90;;;;;;4995766;28;20170;-64
2022/03/08 07:22:56;;;;;;;15.13;8.20;;;0.80;99.90;;;;;;4995984;28;20241;-65
2022/03/08 07:25:22;;;;;;;13.90;7.30;;;1.00;99.90;;;;;;4998351;28;20499;-66
2022/03/08 07:27:47;;;;;;;15.17;7.30;;;1.00;99.90;;;;;;5003997;28;20286;-65
2022/03/08 07:30:13;;;;;;;12.43;7.47;;;1.20;99.90;;;;;;4998184;28;20504;-65
2022/03/08 07:32:39;;;;;;;16.20;8.00;;;1.20;99.90;;;;;;5001219;28;20166;-65
2022/03/08 07:35:05;;;;;;;13.30;7.80;;;1.40;99.90;;;;;;4999917;28;20162;-65
2022/03/08 07:37:38;;;;;;;17.70;7.17;;;1.50;99.90;;;;;;5001366;28;20193;-63
2022/03/08 07:40:06;;;;;;;12.90;7.13;;;1.60;99.90;;;;;;5022187;28;20170;-67
2022/03/08 07:42:32;;;;;;;13.53;8.43;;;1.70;99.90;;;;;;5023904;28;20181;-64
2022/03/08 07:44:58;;;;;;;13.23;7.80;;;1.80;99.90;;;;;;5004914;28;20177;-65
2022/03/08 07:47:23;;;;;;;12.47;6.97;;;1.70;99.90;;;;;;5018176;28;20170;-65
2022/03/08 07:49:49;;;;;;;16.57;6.63;;;1.90;99.90;;;;;;5016481;28;20594;-65
2022/03/08 07:52:15;;;;;;;15.80;8.57;;;2.00;99.90;;;;;;4997442;28;20182;-64
2022/03/08 07:54:40;;;;;;;13.67;8.50;;;2.10;99.90;;;;;;5014334;28;20566;-64
2022/03/08 07:57:06;;;;;;;11.60;8.03;;;2.20;99.90;;;;;;4996687;28;20244;-64
2022/03/08 07:59:32;;;;;;;21.13;9.63;;;2.20;99.90;;;;;;5014201;28;20200;-64
2022/03/08 08:01:57;;;;;;;14.20;7.70;;;2.40;99.90;;;;;;5014498;28;20169;-64
2022/03/08 08:04:23;;;;;;;14.63;8.07;;;2.40;99.90;;;;;;5014122;28;20245;-64
2022/03/08 08:06:49;;;;;;;10.97;6.97;;;2.30;99.90;;;;;;5014165;28;20162;-65
2022/03/08 08:09:15;;;;;;;11.07;7.07;;;2.30;99.90;;;;;;5014107;28;20598;-64
2022/03/08 08:11:41;;;;;;;15.97;6.43;;;2.60;99.90;;;;;;5014199;28;20159;-64
2022/03/08 08:14:06;;;;;;;16.83;7.97;;;2.90;99.90;;;;;;5014495;28;20174;-64
2022/03/08 08:16:32;;;;;;;10.33;6.30;;;3.10;99.90;;;;;;5014258;28;20708;-63
2022/03/08 08:19:00;;;;;;;10.60;5.10;;;3.00;99.90;;;;;;5015775;28;20226;-64
2022/03/08 08:21:26;;;;;;;14.57;6.17;;;3.00;99.90;;;;;;5018487;28;20220;-64
2022/03/08 08:23:52;;;;;;;11.73;6.53;;;3.00;99.90;;;;;;5018499;28;20177;-65
2022/03/08 08:26:18;;;;;;;14.10;7.33;;;3.10;99.90;;;;;;5013992;28;20170;-65
2022/03/08 08:28:43;;;;;;;11.50;7.13;;;3.30;99.90;;;;;;5016842;28;20722;-64
2022/03/08 08:31:09;;;;;;;11.37;6.47;;;3.10;99.90;;;;;;4998935;28;20187;-63
2022/03/08 08:33:35;;;;;;;10.17;5.40;;;3.20;99.90;;;;;;4996327;28;20224;-65
2022/03/08 08:36:03;;;;;;;10.37;5.63;;;3.10;99.90;;;;;;5013446;28;20666;-65
2022/03/08 08:38:28;;;;;;;11.33;5.73;;;3.20;99.90;;;;;;5013850;28;20253;-64
2022/03/08 08:40:55;;;;;;;9.73;5.10;;;3.40;99.90;;;;;;5013614;28;20201;-64
2022/03/08 08:43:21;;;;;;;9.23;5.77;;;3.50;99.90;;;;;;5014008;28;20163;-64
2022/03/08 08:45:51;;;;;;;9.63;5.33;;;3.50;99.90;;;;;;5014569;28;20626;-65
2022/03/08 08:48:18;;;;;;;13.07;6.53;;;3.50;99.90;;;;;;5014423;28;20159;-64
2022/03/08 08:50:43;;;;;;;11.43;6.47;;;3.60;99.90;;;;;;5012360;28;20172;-65
2022/03/08 08:53:09;;;;;;;16.90;7.10;;;3.80;99.90;;;;;;5014559;28;20167;-64
2022/03/08 08:55:37;;;;;;;10.13;5.93;;;4.00;99.90;;;;;;5013366;28;20176;-64
2022/03/08 08:58:03;;;;;;;9.53;5.57;;;4.20;99.90;;;;;;5014012;28;20654;-65
2022/03/08 09:00:29;;;;;;;9.37;5.63;;;4.30;99.90;;;;;;5013405;28;20664;-64
2022/03/08 09:02:55;;;;;;;9.50;5.43;;;4.60;99.90;;;;;;5013743;28;20167;-65
2022/03/08 09:05:21;;;;;;;10.17;5.67;;;4.60;99.90;;;;;;5013850;28;20168;-64
2022/03/08 09:07:47;;;;;;;6.80;4.80;;;4.50;99.90;;;;;;5014921;28;20167;-64
2022/03/08 09:10:13;;;;;;;10.17;6.17;;;4.50;99.90;;;;;;5015856;28;20169;-64
2022/03/08 09:12:39;;;;;;;8.70;5.20;;;4.60;99.90;;;;;;5017124;28;20186;-64
2022/03/08 09:15:05;;;;;;;9.90;5.57;;;4.70;99.90;;;;;;5016623;28;20161;-64
2022/03/08 09:17:31;;;;;;;7.17;5.50;;;4.60;99.90;;;;;;5018200;28;20210;-65
2022/03/08 09:19:56;;;;;;;8.13;5.23;;;4.90;99.90;;;;;;5017676;28;20177;-64
2022/03/08 09:22:22;;;;;;;9.80;5.03;;;4.90;99.90;;;;;;5017181;28;20199;-65
2022/03/08 09:24:47;;;;;;;9.20;5.83;;;4.80;99.90;;;;;;5015727;28;20227;-63
2022/03/08 09:27:13;;;;;;;10.40;5.10;;;5.10;99.90;;;;;;5013330;28;20232;-65
2022/03/08 09:29:39;;;;;;;8.63;5.30;;;5.20;99.90;;;;;;5013586;28;20232;-64
2022/03/08 09:32:05;;;;;;;11.17;5.93;;;5.40;99.90;;;;;;5013641;28;20175;-63
2022/03/08 09:34:30;;;;;;;8.13;5.27;;;5.50;99.90;;;;;;5012984;28;20190;-65
2022/03/08 09:36:56;;;;;;;7.10;5.40;;;5.50;99.90;;;;;;5013477;28;20197;-64
2022/03/08 09:39:21;;;;;;;16.33;5.47;;;5.70;99.90;;;;;;5013907;28;20181;-64
2022/03/08 09:41:51;;;;;;;8.17;5.23;;;5.60;99.90;;;;;;4995401;28;20176;-64
2022/03/08 09:44:18;;;;;;;13.87;4.80;;;5.50;99.90;;;;;;5013194;28;20182;-64
2022/03/08 09:46:44;;;;;;;8.57;5.27;;;5.50;99.90;;;;;;5016829;28;20233;-64
2022/03/08 09:49:10;;;;;;;11.77;5.47;;;5.70;99.90;;;;;;5016969;28;20600;-64
2022/03/08 09:51:38;;;;;;;7.83;4.83;;;5.70;99.90;;;;;;5016810;28;20162;-64
2022/03/08 09:54:05;;;;;;;8.37;4.97;;;5.60;99.90;;;;;;5016493;28;20174;-64
2022/03/08 09:56:31;;;;;;;10.90;5.10;;;5.60;99.90;;;;;;5019457;28;20226;-65
2022/03/08 09:58:59;;;;;;;7.67;5.47;;;5.60;99.90;;;;;;5025795;28;20171;-64
2022/03/08 10:01:25;;;;;;;8.13;4.63;;;5.70;99.90;;;;;;5025787;28;20171;-66
2022/03/08 10:03:50;;;;;;;8.57;5.27;;;6.00;99.90;;;;;;5024407;28;20165;-64
2022/03/08 10:06:17;;;;;;;8.60;5.20;;;5.90;99.90;;;;;;5017807;28;20182;-64
2022/03/08 10:08:42;;;;;;;10.33;4.43;;;5.90;99.90;;;;;;5017055;28;20607;-64
2022/03/08 10:11:11;;;;;;;10.37;4.77;;;6.30;99.90;;;;;;5019571;28;20169;-65
2022/03/08 10:13:44;;;;;;;8.43;4.33;;;6.30;99.90;;;;;;5021202;28;20179;-64
2022/03/08 10:16:24;;;;;;;6.57;4.73;;;6.40;99.90;;;;;;5003240;28;20300;-65
2022/03/08 10:19:02;;;;;;;7.37;4.77;;;6.30;99.90;;;;;;5018497;28;20187;-64
2022/03/08 10:21:35;;;;;;;7.60;4.70;;;6.40;99.90;;;;;;5016703;28;20654;-64
2022/03/08 10:24:20;;;;;;;7.60;4.90;;;6.50;99.90;;;;;;5016703;28;20596;-64
2022/03/08 10:26:47;;;;;;;9.83;4.37;;;6.90;99.90;;;;;;5022815;28;20233;-63
2022/03/08 10:29:13;;;;;;;9.30;4.43;;;7.10;99.90;;;;;;5018858;28;20327;-64
2022/03/08 10:31:39;;;;;;;8.77;4.60;;;7.30;99.90;;;;;;5017285;28;20605;-64
2022/03/08 10:34:07;;;;;;;7.30;4.77;;;7.40;99.90;;;;;;5016226;28;20197;-64
2022/03/08 10:36:35;;;;;;;7.97;3.87;;;7.50;99.90;;;;;;5015669;28;20208;-65
2022/03/08 10:39:08;;;;;;;6.87;4.43;;;7.50;99.90;;;;;;5015452;28;20160;-63
2022/03/08 10:41:56;;;;;;;8.10;4.53;;;7.40;99.90;;;;;;5015380;28;20668;-65
2022/03/08 10:44:31;;;;;;;7.40;4.13;;;7.20;99.90;;;;;;5015692;28;20169;-64
2022/03/08 10:47:02;;;;;;;6.30;4.10;;;7.40;99.90;;;;;;5014963;28;20187;-64
2022/03/08 10:49:27;;;;;;;7.20;4.53;;;7.20;99.90;;;;;;5014965;28;20264;-63
2022/03/08 10:52:01;;;;;;;7.20;4.17;;;7.20;99.90;;;;;;5015177;28;20676;-65
2022/03/08 10:54:28;;;;;;;6.80;3.53;;;7.40;99.90;;;;;;5015531;28;20606;-65
2022/03/08 10:56:55;;;;;;;5.20;3.90;;;7.30;99.90;;;;;;5014596;28;20200;-65
2022/03/08 10:59:21;;;;;;;5.43;3.70;;;7.70;99.90;;;;;;5015556;28;20188;-66
2022/03/08 11:01:46;;;;;;;6.70;4.30;;;7.80;99.90;;;;;;4997805;28;20174;-65
2022/03/08 11:04:23;;;;;;;8.83;4.67;;;7.80;99.90;;;;;;5015272;28;20243;-65
2022/03/08 11:06:53;;;;;;;7.10;4.33;;;8.00;99.40;;;;;;5015164;28;20179;-65
2022/03/08 11:09:20;;;;;;;6.80;4.50;;;8.10;98.30;;;;;;5015502;28;20165;-64
2022/03/08 11:11:46;;;;;;;4.57;3.20;;;8.10;97.30;;;;;;5008752;28;20544;-64
2022/03/08 11:14:12;;;;;;;6.37;3.37;;;8.20;97.00;;;;;;5014987;28;20162;-65
2022/03/08 11:16:39;;;;;;;7.50;3.27;;;8.30;94.60;;;;;;5014838;28;20521;-64
2022/03/08 11:19:05;;;;;;;4.90;3.13;;;8.20;93.60;;;;;;5014691;28;20245;-63
2022/03/08 11:21:33;;;;;;;6.67;2.90;;;8.30;91.30;;;;;;5014910;28;20250;-64
2022/03/08 11:24:03;;;;;;;4.63;2.93;;;8.00;90.50;;;;;;5015026;28;20268;-63
2022/03/08 11:26:29;;;;;;;3.73;2.60;;;7.90;90.60;;;;;;5015294;28;20279;-64
2022/03/08 11:28:55;;;;;;;6.40;2.53;;;8.00;91.60;;;;;;5014957;28;20572;-66
2022/03/08 11:31:25;;;;;;;3.60;2.37;;;7.70;87.10;;;;;;5015117;28;20493;-64
2022/03/08 11:34:10;;;;;;;2.73;1.87;;;8.10;85.00;;;;;;5014870;28;20319;-63
2022/03/08 11:36:50;;;;;;;2.27;1.60;;;8.00;77.00;;;;;;5014504;28;20201;-64
2022/03/08 11:39:21;;;;;;;2.90;1.37;;;8.40;70.80;;;;;;5014781;28;20168;-65
2022/03/08 11:41:52;;;;;;;2.47;1.30;;;8.40;62.50;;;;;;5017733;28;20192;-64
2022/03/08 11:44:33;;;;;;;18.53;8.83;;;8.50;61.40;;;;;;5015131;28;20162;-63
2022/03/08 11:47:14;;;;;;;3.93;1.53;;;8.60;61.00;;;;;;5014480;28;20173;-63
2022/03/08 11:49:41;;;;;;;1.13;1.03;;;8.80;59.60;;;;;;5014409;28;20185;-63
2022/03/08 11:52:17;;;;;;;1.33;1.20;;;8.70;55.40;;;;;;5014224;28;20602;-64
2022/03/08 11:55:06;;;;;;;0.80;0.80;;;8.70;53.40;;;;;;5010611;28;20570;-64
2022/03/08 11:57:54;;;;;;;0.70;0.70;;;8.80;52.30;;;;;;5014103;28;20738;-64
2022/03/08 12:00:28;;;;;;;0.80;0.80;;;8.70;51.00;;;;;;5013731;28;20197;-64
2022/03/08 12:02:55;;;;;;;1.10;1.00;;;8.80;51.10;;;;;;5014518;28;20177;-64
2022/03/08 12:05:42;;;;;;;2.47;1.20;;;8.80;51.80;;;;;;5014340;28;20640;-64
2022/03/08 12:08:29;;;;;;;1.47;1.23;;;8.70;51.50;;;;;;5013398;28;20552;-64
2022/03/08 12:11:02;;;;;;;1.13;0.80;;;8.60;52.30;;;;;;4996184;28;20636;-64
2022/03/08 12:13:32;;;;;;;2.30;1.57;;;8.70;51.90;;;;;;5014081;28;20177;-64
2022/03/08 12:16:09;;;;;;;1.77;1.10;;;8.80;50.20;;;;;;5013815;28;20649;-64
2022/03/08 12:18:42;;;;;;;1.70;1.20;;;8.80;50.50;;;;;;5013713;28;20211;-64
2022/03/08 12:21:16;;;;;;;2.80;1.40;;;8.80;51.40;;;;;;5013660;28;20247;-65
2022/03/08 12:24:08;;;;;;;1.10;0.73;;;8.70;52.40;;;;;;5014249;28;20259;-64
2022/03/08 12:27:03;;;;;;;1.10;1.00;;;8.60;49.00;;;;;;5013574;28;20243;-62
2022/03/08 12:29:50;;;;;;;1.53;1.07;;;8.60;49.80;;;;;;5004002;28;20190;-64
2022/03/08 12:32:32;;;;;;;1.53;1.13;;;8.80;50.20;;;;;;5013619;28;20159;-63
2022/03/08 12:35:00;;;;;;;1.43;1.03;;;9.00;50.10;;;;;;5014427;28;20193;-63
2022/03/08 12:37:38;;;;;;;1.63;1.00;;;8.90;47.30;;;;;;5013748;28;20292;-64
2022/03/08 12:40:08;;;;;;;1.13;1.00;;;8.70;45.70;;;;;;5013804;28;20162;-64
2022/03/08 12:42:42;;;;;;;1.80;1.30;;;8.70;47.50;;;;;;5008682;28;20162;-66
2022/03/08 12:45:08;;;;;;;0.90;0.90;;;8.60;51.00;;;;;;4997012;28;20186;-65
2022/03/08 12:47:42;;;;;;;1.87;1.03;;;8.90;50.20;;;;;;4998916;28;20646;-63
2022/03/08 12:50:18;;;;;;;0.97;0.87;;;9.10;47.50;;;;;;5000487;28;20205;-64
2022/03/08 12:52:49;;;;;;;1.27;0.93;;;9.00;45.10;;;;;;4996622;28;20586;-65